Pagrindinis puslapis
METAR-TAF:

METAR-TAF

Oro uostai :

Manila, Filipinai

platuma: 14-31N, ilguma: 121-00E, Aukštis: 14 m

Dabartinis oras

Ataskaita buvo paskelbta 44 minutes, ne 05:00 UTC
Vėjas 8 kt iš Rytų/Pietryčių, svyruoja nuo Rytų/Šiaurės Rytų ir Pietų/Pietryčių
Temperatūra 29°C
Drėgmė 70%
Slėgis 1012 hPa
Matomumas 10 km arba daugiau
Išsisklaidę debesys ne aukštis 2300 ft
Su prošvaistėmis ne aukštis 10000 ft

METAR: RPLL 120500Z 11008KT 070V160 9999 SCT023 BKN100 29/23 Q1012 NOSIG RMK A2988

Laikas: 13:44 (05:44 UTC)

Prognozė

Ataskaita buvo paskelbta 44 minutes, ne 05:00 UTC
Prognozė galioja nuo 12 metu 06 UTC su 13 metu 12 UTC
Vėjas 8 kt iš Rytų
Matomumas 10 km arba daugiau
Mažai debesys ne aukštis 2500 ft
Išsisklaidę debesys ne aukštis 10000 ft
Laikinai
nuo 12 metu 06 UTC su 12 metu 12 UTC
Vėjas 12 kt iš Rytų/Šiaurės Rytų
Mažai debesys ne aukštis 2300 ft
Su prošvaistėmis ne aukštis 10000 ft

TAF: RPLL 120500Z 1206/1312 08008KT 9999 FEW025 SCT100 TX31/1206Z TN26/1221Z TEMPO 1206/1212 06012KT FEW023 BKN100

Orai ataskaitas ir orų prognozės (METAR, TAF).

turimą stotys yra geltonos ir raudonos taškus žemėlapyje.

Perkelti pele per norėdami pamatyti stoties vardą.

Tada spustelėkite, norėdami matyti oro stebėjimo ir prognozės.

Norėdami pakeisti žemėlapį: spustelėkite ant žalios mygtukų su juodo kryžiaus žemyn,; žalią mygtuką su brūkšneliu, jei norite nutolinti; arba žalių rodyklių gretimoms žemėlapius.


METAR-TAF: